sensor_id;sensor_type;location;lat;lon;timestamp;P1;durP1;ratioP1;P2;durP2;ratioP2
63536;SDS011;49686;51.880;5.632;2024-01-11T00:00:36;19.95;;;8.60;;
63536;SDS011;49686;51.880;5.632;2024-01-11T00:03:03;19.08;;;7.55;;
63536;SDS011;49686;51.880;5.632;2024-01-11T00:05:30;21.65;;;8.55;;
63536;SDS011;49686;51.880;5.632;2024-01-11T00:07:57;18.98;;;8.98;;
63536;SDS011;49686;51.880;5.632;2024-01-11T00:10:24;25.10;;;10.98;;
63536;SDS011;49686;51.880;5.632;2024-01-11T00:12:51;21.20;;;8.60;;
63536;SDS011;49686;51.880;5.632;2024-01-11T00:15:19;18.67;;;8.55;;
63536;SDS011;49686;51.880;5.632;2024-01-11T00:17:46;18.70;;;8.52;;
63536;SDS011;49686;51.880;5.632;2024-01-11T00:20:13;19.48;;;8.52;;
63536;SDS011;49686;51.880;5.632;2024-01-11T00:22:40;22.40;;;9.73;;
63536;SDS011;49686;51.880;5.632;2024-01-11T00:25:07;20.80;;;8.43;;
63536;SDS011;49686;51.880;5.632;2024-01-11T00:27:34;19.02;;;8.60;;
63536;SDS011;49686;51.880;5.632;2024-01-11T00:30:01;21.10;;;9.48;;
63536;SDS011;49686;51.880;5.632;2024-01-11T00:32:30;22.30;;;9.98;;
63536;SDS011;49686;51.880;5.632;2024-01-11T00:34:57;15.32;;;6.97;;
63536;SDS011;49686;51.880;5.632;2024-01-11T00:37:24;19.90;;;8.35;;
63536;SDS011;49686;51.880;5.632;2024-01-11T00:39:51;18.08;;;8.85;;
63536;SDS011;49686;51.880;5.632;2024-01-11T00:42:18;15.68;;;8.15;;
63536;SDS011;49686;51.880;5.632;2024-01-11T00:44:45;17.95;;;8.88;;
63536;SDS011;49686;51.880;5.632;2024-01-11T00:47:12;19.63;;;8.65;;
63536;SDS011;49686;51.880;5.632;2024-01-11T00:49:40;21.40;;;9.32;;
63536;SDS011;49686;51.880;5.632;2024-01-11T00:52:07;19.00;;;8.52;;
63536;SDS011;49686;51.880;5.632;2024-01-11T00:54:35;19.35;;;7.25;;
63536;SDS011;49686;51.880;5.632;2024-01-11T00:57:02;18.88;;;7.75;;
63536;SDS011;49686;51.880;5.632;2024-01-11T00:59:29;15.75;;;7.63;;
63536;SDS011;49686;51.880;5.632;2024-01-11T01:01:56;20.10;;;8.27;;
63536;SDS011;49686;51.880;5.632;2024-01-11T01:04:23;23.00;;;8.85;;
63536;SDS011;49686;51.880;5.632;2024-01-11T01:06:51;19.70;;;7.45;;
63536;SDS011;49686;51.880;5.632;2024-01-11T01:09:18;17.90;;;8.38;;
63536;SDS011;49686;51.880;5.632;2024-01-11T01:11:46;16.20;;;7.22;;
63536;SDS011;49686;51.880;5.632;2024-01-11T01:14:12;17.13;;;7.15;;
63536;SDS011;49686;51.880;5.632;2024-01-11T01:16:39;16.20;;;7.55;;
63536;SDS011;49686;51.880;5.632;2024-01-11T01:19:06;17.95;;;8.20;;
63536;SDS011;49686;51.880;5.632;2024-01-11T01:21:33;22.92;;;8.90;;
63536;SDS011;49686;51.880;5.632;2024-01-11T01:24:02;16.02;;;7.45;;
63536;SDS011;49686;51.880;5.632;2024-01-11T01:26:29;15.70;;;7.10;;
63536;SDS011;49686;51.880;5.632;2024-01-11T01:28:56;12.82;;;6.10;;
63536;SDS011;49686;51.880;5.632;2024-01-11T01:31:23;18.35;;;7.85;;
63536;SDS011;49686;51.880;5.632;2024-01-11T01:33:50;14.73;;;7.03;;
63536;SDS011;49686;51.880;5.632;2024-01-11T01:36:17;16.92;;;7.38;;
63536;SDS011;49686;51.880;5.632;2024-01-11T01:38:44;16.25;;;7.20;;
63536;SDS011;49686;51.880;5.632;2024-01-11T01:41:12;15.80;;;6.97;;
63536;SDS011;49686;51.880;5.632;2024-01-11T01:43:39;15.15;;;7.13;;
63536;SDS011;49686;51.880;5.632;2024-01-11T01:46:06;17.48;;;7.68;;
63536;SDS011;49686;51.880;5.632;2024-01-11T01:48:33;19.13;;;6.82;;
63536;SDS011;49686;51.880;5.632;2024-01-11T01:51:03;20.00;;;8.63;;
63536;SDS011;49686;51.880;5.632;2024-01-11T01:53:31;15.80;;;7.40;;
63536;SDS011;49686;51.880;5.632;2024-01-11T01:55:58;16.00;;;6.95;;
63536;SDS011;49686;51.880;5.632;2024-01-11T01:58:26;13.73;;;6.20;;
63536;SDS011;49686;51.880;5.632;2024-01-11T02:00:53;15.20;;;7.30;;
63536;SDS011;49686;51.880;5.632;2024-01-11T02:03:20;17.70;;;7.53;;
63536;SDS011;49686;51.880;5.632;2024-01-11T02:05:49;21.20;;;7.82;;
63536;SDS011;49686;51.880;5.632;2024-01-11T02:08:16;13.70;;;6.82;;
63536;SDS011;49686;51.880;5.632;2024-01-11T02:10:49;14.45;;;6.00;;
63536;SDS011;49686;51.880;5.632;2024-01-11T02:13:17;13.82;;;6.55;;
63536;SDS011;49686;51.880;5.632;2024-01-11T02:15:47;18.35;;;7.43;;
63536;SDS011;49686;51.880;5.632;2024-01-11T02:18:14;14.48;;;6.28;;
63536;SDS011;49686;51.880;5.632;2024-01-11T02:20:41;17.25;;;7.88;;
63536;SDS011;49686;51.880;5.632;2024-01-11T02:23:11;20.15;;;8.32;;
63536;SDS011;49686;51.880;5.632;2024-01-11T02:25:44;20.15;;;7.95;;
63536;SDS011;49686;51.880;5.632;2024-01-11T02:28:11;16.02;;;8.02;;
63536;SDS011;49686;51.880;5.632;2024-01-11T02:30:38;15.75;;;6.43;;
63536;SDS011;49686;51.880;5.632;2024-01-11T02:33:05;19.98;;;7.97;;
63536;SDS011;49686;51.880;5.632;2024-01-11T02:35:33;16.02;;;7.35;;
63536;SDS011;49686;51.880;5.632;2024-01-11T02:38:00;19.50;;;7.03;;
63536;SDS011;49686;51.880;5.632;2024-01-11T02:40:28;15.55;;;6.75;;
63536;SDS011;49686;51.880;5.632;2024-01-11T02:43:01;18.85;;;7.95;;
63536;SDS011;49686;51.880;5.632;2024-01-11T02:45:34;16.08;;;6.63;;
63536;SDS011;49686;51.880;5.632;2024-01-11T02:48:01;18.17;;;7.68;;
63536;SDS011;49686;51.880;5.632;2024-01-11T02:50:28;14.38;;;6.43;;
63536;SDS011;49686;51.880;5.632;2024-01-11T02:52:55;12.70;;;6.57;;
63536;SDS011;49686;51.880;5.632;2024-01-11T02:55:22;18.45;;;7.65;;
63536;SDS011;49686;51.880;5.632;2024-01-11T02:57:49;16.00;;;7.18;;
63536;SDS011;49686;51.880;5.632;2024-01-11T03:00:18;14.05;;;5.88;;
63536;SDS011;49686;51.880;5.632;2024-01-11T03:02:45;13.63;;;6.22;;
63536;SDS011;49686;51.880;5.632;2024-01-11T03:05:14;11.77;;;5.63;;
63536;SDS011;49686;51.880;5.632;2024-01-11T03:07:41;16.80;;;6.88;;
63536;SDS011;49686;51.880;5.632;2024-01-11T03:10:08;11.43;;;5.72;;
63536;SDS011;49686;51.880;5.632;2024-01-11T03:12:35;17.65;;;7.28;;
63536;SDS011;49686;51.880;5.632;2024-01-11T03:15:02;10.80;;;5.18;;
63536;SDS011;49686;51.880;5.632;2024-01-11T03:17:31;14.48;;;6.50;;
63536;SDS011;49686;51.880;5.632;2024-01-11T03:19:59;15.30;;;6.82;;
63536;SDS011;49686;51.880;5.632;2024-01-11T03:22:26;13.35;;;6.22;;
63536;SDS011;49686;51.880;5.632;2024-01-11T03:24:53;16.65;;;7.07;;
63536;SDS011;49686;51.880;5.632;2024-01-11T03:27:25;15.25;;;7.05;;
63536;SDS011;49686;51.880;5.632;2024-01-11T03:29:52;18.83;;;7.03;;
63536;SDS011;49686;51.880;5.632;2024-01-11T03:32:19;14.35;;;6.60;;
63536;SDS011;49686;51.880;5.632;2024-01-11T03:34:47;11.27;;;4.88;;
63536;SDS011;49686;51.880;5.632;2024-01-11T03:37:14;15.65;;;6.47;;
63536;SDS011;49686;51.880;5.632;2024-01-11T03:39:41;13.43;;;6.97;;
63536;SDS011;49686;51.880;5.632;2024-01-11T03:42:08;15.43;;;7.03;;
63536;SDS011;49686;51.880;5.632;2024-01-11T03:44:36;15.52;;;7.30;;
63536;SDS011;49686;51.880;5.632;2024-01-11T03:47:03;16.63;;;8.57;;
63536;SDS011;49686;51.880;5.632;2024-01-11T03:49:30;17.35;;;8.55;;
63536;SDS011;49686;51.880;5.632;2024-01-11T03:51:58;13.55;;;6.95;;
63536;SDS011;49686;51.880;5.632;2024-01-11T03:54:25;20.83;;;8.30;;
63536;SDS011;49686;51.880;5.632;2024-01-11T03:56:52;18.48;;;7.68;;
63536;SDS011;49686;51.880;5.632;2024-01-11T03:59:19;15.55;;;7.28;;
63536;SDS011;49686;51.880;5.632;2024-01-11T04:01:46;15.15;;;6.53;;
63536;SDS011;49686;51.880;5.632;2024-01-11T04:04:13;14.45;;;7.05;;
63536;SDS011;49686;51.880;5.632;2024-01-11T04:06:40;13.35;;;6.00;;
63536;SDS011;49686;51.880;5.632;2024-01-11T04:09:08;15.68;;;6.32;;
63536;SDS011;49686;51.880;5.632;2024-01-11T04:11:35;13.10;;;5.82;;
63536;SDS011;49686;51.880;5.632;2024-01-11T04:14:02;21.40;;;5.85;;
63536;SDS011;49686;51.880;5.632;2024-01-11T04:16:29;15.38;;;7.03;;
63536;SDS011;49686;51.880;5.632;2024-01-11T04:18:56;16.73;;;6.82;;
63536;SDS011;49686;51.880;5.632;2024-01-11T04:21:23;15.20;;;7.30;;
63536;SDS011;49686;51.880;5.632;2024-01-11T04:23:51;18.40;;;8.70;;
63536;SDS011;49686;51.880;5.632;2024-01-11T04:26:19;23.45;;;9.13;;
63536;SDS011;49686;51.880;5.632;2024-01-11T04:28:47;18.67;;;7.65;;
63536;SDS011;49686;51.880;5.632;2024-01-11T04:31:14;16.00;;;6.38;;
63536;SDS011;49686;51.880;5.632;2024-01-11T04:33:41;15.00;;;7.30;;
63536;SDS011;49686;51.880;5.632;2024-01-11T04:36:09;20.48;;;8.32;;
63536;SDS011;49686;51.880;5.632;2024-01-11T04:38:36;18.73;;;7.70;;
63536;SDS011;49686;51.880;5.632;2024-01-11T04:41:07;18.90;;;9.02;;
63536;SDS011;49686;51.880;5.632;2024-01-11T04:43:36;16.25;;;8.15;;
63536;SDS011;49686;51.880;5.632;2024-01-11T04:46:03;15.43;;;7.13;;
63536;SDS011;49686;51.880;5.632;2024-01-11T04:48:38;16.67;;;7.00;;
63536;SDS011;49686;51.880;5.632;2024-01-11T04:51:05;16.58;;;6.65;;
63536;SDS011;49686;51.880;5.632;2024-01-11T04:53:32;21.15;;;9.05;;
63536;SDS011;49686;51.880;5.632;2024-01-11T04:56:02;17.58;;;8.20;;
63536;SDS011;49686;51.880;5.632;2024-01-11T04:58:29;14.27;;;6.97;;
63536;SDS011;49686;51.880;5.632;2024-01-11T05:00:57;15.65;;;7.43;;
63536;SDS011;49686;51.880;5.632;2024-01-11T05:03:24;18.55;;;7.30;;
63536;SDS011;49686;51.880;5.632;2024-01-11T05:05:51;17.13;;;7.32;;
63536;SDS011;49686;51.880;5.632;2024-01-11T05:08:18;20.90;;;9.82;;
63536;SDS011;49686;51.880;5.632;2024-01-11T05:10:48;15.27;;;7.20;;
63536;SDS011;49686;51.880;5.632;2024-01-11T05:13:15;16.00;;;7.75;;
63536;SDS011;49686;51.880;5.632;2024-01-11T05:15:42;17.85;;;8.40;;
63536;SDS011;49686;51.880;5.632;2024-01-11T05:18:11;16.55;;;7.28;;
63536;SDS011;49686;51.880;5.632;2024-01-11T05:20:38;12.07;;;5.82;;
63536;SDS011;49686;51.880;5.632;2024-01-11T05:23:05;15.07;;;5.75;;
63536;SDS011;49686;51.880;5.632;2024-01-11T05:25:32;17.25;;;7.93;;
63536;SDS011;49686;51.880;5.632;2024-01-11T05:27:59;18.00;;;8.27;;
63536;SDS011;49686;51.880;5.632;2024-01-11T05:30:26;20.48;;;8.75;;
63536;SDS011;49686;51.880;5.632;2024-01-11T05:32:56;17.02;;;7.88;;
63536;SDS011;49686;51.880;5.632;2024-01-11T05:35:24;16.35;;;7.40;;
63536;SDS011;49686;51.880;5.632;2024-01-11T05:37:51;18.85;;;8.30;;
63536;SDS011;49686;51.880;5.632;2024-01-11T05:40:18;17.95;;;6.30;;
63536;SDS011;49686;51.880;5.632;2024-01-11T05:42:46;19.63;;;8.60;;
63536;SDS011;49686;51.880;5.632;2024-01-11T05:45:15;16.65;;;8.27;;
63536;SDS011;49686;51.880;5.632;2024-01-11T05:47:45;13.77;;;6.88;;
63536;SDS011;49686;51.880;5.632;2024-01-11T05:50:12;14.02;;;6.72;;
63536;SDS011;49686;51.880;5.632;2024-01-11T05:52:40;12.68;;;6.20;;
63536;SDS011;49686;51.880;5.632;2024-01-11T05:55:07;17.60;;;9.20;;
63536;SDS011;49686;51.880;5.632;2024-01-11T05:57:34;19.20;;;9.13;;
63536;SDS011;49686;51.880;5.632;2024-01-11T06:00:01;19.27;;;7.88;;
63536;SDS011;49686;51.880;5.632;2024-01-11T06:02:28;16.83;;;7.85;;
63536;SDS011;49686;51.880;5.632;2024-01-11T06:04:55;21.20;;;8.90;;
63536;SDS011;49686;51.880;5.632;2024-01-11T06:07:22;17.75;;;8.38;;
63536;SDS011;49686;51.880;5.632;2024-01-11T06:09:51;17.40;;;7.80;;
63536;SDS011;49686;51.880;5.632;2024-01-11T06:12:18;18.75;;;7.03;;
63536;SDS011;49686;51.880;5.632;2024-01-11T06:14:45;13.90;;;6.70;;
63536;SDS011;49686;51.880;5.632;2024-01-11T06:17:12;18.20;;;8.40;;
63536;SDS011;49686;51.880;5.632;2024-01-11T06:19:39;18.23;;;7.40;;
63536;SDS011;49686;51.880;5.632;2024-01-11T06:22:07;18.33;;;8.18;;
63536;SDS011;49686;51.880;5.632;2024-01-11T06:24:34;22.60;;;7.95;;
63536;SDS011;49686;51.880;5.632;2024-01-11T06:27:02;17.00;;;8.07;;
63536;SDS011;49686;51.880;5.632;2024-01-11T06:29:29;14.77;;;6.15;;
63536;SDS011;49686;51.880;5.632;2024-01-11T06:31:56;12.25;;;5.75;;
63536;SDS011;49686;51.880;5.632;2024-01-11T06:34:23;17.45;;;7.57;;
63536;SDS011;49686;51.880;5.632;2024-01-11T06:36:50;14.23;;;6.93;;
63536;SDS011;49686;51.880;5.632;2024-01-11T06:39:17;13.82;;;6.78;;
63536;SDS011;49686;51.880;5.632;2024-01-11T06:41:44;21.35;;;10.40;;
63536;SDS011;49686;51.880;5.632;2024-01-11T06:44:13;21.92;;;10.35;;
63536;SDS011;49686;51.880;5.632;2024-01-11T06:46:39;22.67;;;10.75;;
63536;SDS011;49686;51.880;5.632;2024-01-11T06:49:07;21.35;;;9.60;;
63536;SDS011;49686;51.880;5.632;2024-01-11T06:51:34;14.48;;;7.22;;
63536;SDS011;49686;51.880;5.632;2024-01-11T06:54:01;15.88;;;7.57;;
63536;SDS011;49686;51.880;5.632;2024-01-11T06:56:28;18.85;;;9.23;;
63536;SDS011;49686;51.880;5.632;2024-01-11T06:58:55;21.25;;;9.57;;
63536;SDS011;49686;51.880;5.632;2024-01-11T07:01:23;13.98;;;6.75;;
63536;SDS011;49686;51.880;5.632;2024-01-11T07:03:50;19.48;;;8.45;;
63536;SDS011;49686;51.880;5.632;2024-01-11T07:06:17;24.40;;;10.40;;
63536;SDS011;49686;51.880;5.632;2024-01-11T07:08:44;17.35;;;8.23;;
63536;SDS011;49686;51.880;5.632;2024-01-11T07:11:11;20.00;;;9.27;;
63536;SDS011;49686;51.880;5.632;2024-01-11T07:13:38;19.65;;;8.80;;
63536;SDS011;49686;51.880;5.632;2024-01-11T07:16:05;18.65;;;7.95;;
63536;SDS011;49686;51.880;5.632;2024-01-11T07:18:33;26.38;;;10.77;;
63536;SDS011;49686;51.880;5.632;2024-01-11T07:21:00;27.55;;;13.45;;
63536;SDS011;49686;51.880;5.632;2024-01-11T07:23:27;18.15;;;8.32;;
63536;SDS011;49686;51.880;5.632;2024-01-11T07:25:54;23.02;;;10.30;;
63536;SDS011;49686;51.880;5.632;2024-01-11T07:28:21;22.92;;;9.60;;
63536;SDS011;49686;51.880;5.632;2024-01-11T07:30:48;20.52;;;9.60;;
63536;SDS011;49686;51.880;5.632;2024-01-11T07:33:17;21.25;;;9.90;;
63536;SDS011;49686;51.880;5.632;2024-01-11T07:35:45;20.73;;;10.23;;
63536;SDS011;49686;51.880;5.632;2024-01-11T07:38:12;29.77;;;12.15;;
63536;SDS011;49686;51.880;5.632;2024-01-11T07:40:39;20.75;;;10.20;;
63536;SDS011;49686;51.880;5.632;2024-01-11T07:43:09;19.70;;;10.45;;
63536;SDS011;49686;51.880;5.632;2024-01-11T07:45:38;27.60;;;13.65;;
63536;SDS011;49686;51.880;5.632;2024-01-11T07:48:05;25.00;;;12.23;;
63536;SDS011;49686;51.880;5.632;2024-01-11T07:50:32;28.80;;;11.68;;
63536;SDS011;49686;51.880;5.632;2024-01-11T07:53:00;18.73;;;9.23;;
63536;SDS011;49686;51.880;5.632;2024-01-11T07:55:27;22.75;;;10.57;;
63536;SDS011;49686;51.880;5.632;2024-01-11T07:57:54;22.27;;;10.45;;
63536;SDS011;49686;51.880;5.632;2024-01-11T08:00:21;19.52;;;8.07;;
63536;SDS011;49686;51.880;5.632;2024-01-11T08:02:48;23.25;;;11.10;;
63536;SDS011;49686;51.880;5.632;2024-01-11T08:05:15;22.83;;;10.50;;
63536;SDS011;49686;51.880;5.632;2024-01-11T08:07:42;22.77;;;10.63;;
63536;SDS011;49686;51.880;5.632;2024-01-11T08:10:10;22.80;;;11.00;;
63536;SDS011;49686;51.880;5.632;2024-01-11T08:12:37;26.95;;;12.48;;
63536;SDS011;49686;51.880;5.632;2024-01-11T08:15:04;25.70;;;12.02;;
63536;SDS011;49686;51.880;5.632;2024-01-11T08:17:32;21.48;;;10.00;;
63536;SDS011;49686;51.880;5.632;2024-01-11T08:19:59;25.88;;;11.85;;
63536;SDS011;49686;51.880;5.632;2024-01-11T08:22:26;18.58;;;9.32;;
63536;SDS011;49686;51.880;5.632;2024-01-11T08:24:53;24.10;;;11.35;;
63536;SDS011;49686;51.880;5.632;2024-01-11T08:27:21;28.27;;;11.57;;
63536;SDS011;49686;51.880;5.632;2024-01-11T08:29:48;31.25;;;13.82;;
63536;SDS011;49686;51.880;5.632;2024-01-11T08:32:15;27.95;;;13.40;;
63536;SDS011;49686;51.880;5.632;2024-01-11T08:34:56;25.58;;;12.50;;
63536;SDS011;49686;51.880;5.632;2024-01-11T08:37:24;22.50;;;12.30;;
63536;SDS011;49686;51.880;5.632;2024-01-11T08:39:51;26.73;;;12.38;;
63536;SDS011;49686;51.880;5.632;2024-01-11T08:42:18;27.10;;;13.15;;
63536;SDS011;49686;51.880;5.632;2024-01-11T08:44:47;25.27;;;11.20;;
63536;SDS011;49686;51.880;5.632;2024-01-11T08:47:14;27.58;;;13.73;;
63536;SDS011;49686;51.880;5.632;2024-01-11T08:49:41;23.95;;;11.68;;
63536;SDS011;49686;51.880;5.632;2024-01-11T08:52:07;21.85;;;10.93;;
63536;SDS011;49686;51.880;5.632;2024-01-11T08:54:34;25.17;;;11.55;;
63536;SDS011;49686;51.880;5.632;2024-01-11T08:57:02;23.30;;;10.15;;
63536;SDS011;49686;51.880;5.632;2024-01-11T08:59:29;22.67;;;9.85;;
63536;SDS011;49686;51.880;5.632;2024-01-11T09:01:58;27.48;;;11.40;;
63536;SDS011;49686;51.880;5.632;2024-01-11T09:04:40;29.35;;;13.63;;
63536;SDS011;49686;51.880;5.632;2024-01-11T09:07:07;27.25;;;13.00;;
63536;SDS011;49686;51.880;5.632;2024-01-11T09:09:34;29.67;;;14.75;;
63536;SDS011;49686;51.880;5.632;2024-01-11T09:12:13;29.27;;;14.07;;
63536;SDS011;49686;51.880;5.632;2024-01-11T09:14:40;34.90;;;16.02;;
63536;SDS011;49686;51.880;5.632;2024-01-11T09:17:08;30.08;;;13.70;;
63536;SDS011;49686;51.880;5.632;2024-01-11T09:19:35;30.83;;;13.55;;
63536;SDS011;49686;51.880;5.632;2024-01-11T09:22:02;32.63;;;15.93;;
63536;SDS011;49686;51.880;5.632;2024-01-11T09:24:29;36.13;;;16.52;;
63536;SDS011;49686;51.880;5.632;2024-01-11T09:27:03;33.33;;;14.55;;
63536;SDS011;49686;51.880;5.632;2024-01-11T09:29:30;31.02;;;13.73;;
63536;SDS011;49686;51.880;5.632;2024-01-11T09:31:58;34.60;;;15.52;;
63536;SDS011;49686;51.880;5.632;2024-01-11T09:34:26;30.23;;;14.55;;
63536;SDS011;49686;51.880;5.632;2024-01-11T09:36:54;26.25;;;12.65;;
63536;SDS011;49686;51.880;5.632;2024-01-11T09:39:21;26.48;;;12.32;;
63536;SDS011;49686;51.880;5.632;2024-01-11T09:44:32;31.42;;;15.13;;
63536;SDS011;49686;51.880;5.632;2024-01-11T09:47:00;33.13;;;16.25;;
63536;SDS011;49686;51.880;5.632;2024-01-11T09:49:29;32.70;;;14.85;;
63536;SDS011;49686;51.880;5.632;2024-01-11T09:51:57;26.30;;;12.63;;
63536;SDS011;49686;51.880;5.632;2024-01-11T09:54:24;37.08;;;14.85;;
63536;SDS011;49686;51.880;5.632;2024-01-11T09:56:52;29.83;;;13.88;;
63536;SDS011;49686;51.880;5.632;2024-01-11T09:59:20;33.58;;;15.73;;
63536;SDS011;49686;51.880;5.632;2024-01-11T10:01:48;36.30;;;15.80;;
63536;SDS011;49686;51.880;5.632;2024-01-11T10:04:16;27.42;;;13.10;;
63536;SDS011;49686;51.880;5.632;2024-01-11T10:06:45;33.28;;;15.20;;
63536;SDS011;49686;51.880;5.632;2024-01-11T10:09:13;30.77;;;14.20;;
63536;SDS011;49686;51.880;5.632;2024-01-11T10:11:40;33.10;;;15.15;;
63536;SDS011;49686;51.880;5.632;2024-01-11T10:14:07;27.08;;;13.68;;
63536;SDS011;49686;51.880;5.632;2024-01-11T10:16:34;30.65;;;12.90;;
63536;SDS011;49686;51.880;5.632;2024-01-11T10:19:01;29.90;;;13.73;;
63536;SDS011;49686;51.880;5.632;2024-01-11T10:21:29;22.13;;;11.20;;
63536;SDS011;49686;51.880;5.632;2024-01-11T10:23:58;25.58;;;12.48;;
63536;SDS011;49686;51.880;5.632;2024-01-11T10:26:24;34.15;;;15.20;;
63536;SDS011;49686;51.880;5.632;2024-01-11T10:28:51;26.90;;;11.68;;
63536;SDS011;49686;51.880;5.632;2024-01-11T10:31:18;31.17;;;13.32;;
63536;SDS011;49686;51.880;5.632;2024-01-11T10:36:14;24.85;;;12.00;;
63536;SDS011;49686;51.880;5.632;2024-01-11T10:38:41;30.30;;;14.15;;
63536;SDS011;49686;51.880;5.632;2024-01-11T10:41:13;36.45;;;16.65;;
63536;SDS011;49686;51.880;5.632;2024-01-11T10:43:45;31.58;;;14.20;;
63536;SDS011;49686;51.880;5.632;2024-01-11T10:48:41;30.58;;;13.88;;
63536;SDS011;49686;51.880;5.632;2024-01-11T10:51:12;34.90;;;14.98;;
63536;SDS011;49686;51.880;5.632;2024-01-11T10:53:44;30.00;;;13.80;;
63536;SDS011;49686;51.880;5.632;2024-01-11T10:56:14;29.40;;;13.77;;
63536;SDS011;49686;51.880;5.632;2024-01-11T10:58:42;26.65;;;12.70;;
63536;SDS011;49686;51.880;5.632;2024-01-11T11:01:10;32.75;;;15.68;;
63536;SDS011;49686;51.880;5.632;2024-01-11T11:03:38;40.05;;;17.52;;
63536;SDS011;49686;51.880;5.632;2024-01-11T11:06:07;31.85;;;16.00;;
63536;SDS011;49686;51.880;5.632;2024-01-11T11:08:35;31.50;;;15.23;;
63536;SDS011;49686;51.880;5.632;2024-01-11T11:11:03;28.02;;;12.75;;
63536;SDS011;49686;51.880;5.632;2024-01-11T11:13:32;31.30;;;14.20;;
63536;SDS011;49686;51.880;5.632;2024-01-11T11:15:59;31.60;;;14.30;;
63536;SDS011;49686;51.880;5.632;2024-01-11T11:18:27;25.58;;;12.65;;
63536;SDS011;49686;51.880;5.632;2024-01-11T11:20:55;26.58;;;12.27;;
63536;SDS011;49686;51.880;5.632;2024-01-11T11:23:22;22.25;;;10.77;;
63536;SDS011;49686;51.880;5.632;2024-01-11T11:25:49;20.05;;;9.93;;
63536;SDS011;49686;51.880;5.632;2024-01-11T11:28:16;26.45;;;12.38;;
63536;SDS011;49686;51.880;5.632;2024-01-11T11:30:48;15.57;;;7.50;;
63536;SDS011;49686;51.880;5.632;2024-01-11T11:33:15;21.80;;;9.00;;
63536;SDS011;49686;51.880;5.632;2024-01-11T11:35:45;19.27;;;8.55;;
63536;SDS011;49686;51.880;5.632;2024-01-11T11:38:17;19.40;;;7.40;;
63536;SDS011;49686;51.880;5.632;2024-01-11T11:40:45;20.10;;;7.55;;
63536;SDS011;49686;51.880;5.632;2024-01-11T11:43:13;18.15;;;6.57;;
63536;SDS011;49686;51.880;5.632;2024-01-11T11:45:42;17.15;;;6.72;;
63536;SDS011;49686;51.880;5.632;2024-01-11T11:51:15;17.05;;;6.22;;
63536;SDS011;49686;51.880;5.632;2024-01-11T11:53:46;19.13;;;7.10;;
63536;SDS011;49686;51.880;5.632;2024-01-11T11:56:14;21.00;;;7.68;;
63536;SDS011;49686;51.880;5.632;2024-01-11T11:58:42;21.20;;;6.75;;
63536;SDS011;49686;51.880;5.632;2024-01-11T12:01:10;16.58;;;6.30;;
63536;SDS011;49686;51.880;5.632;2024-01-11T12:03:38;17.80;;;6.03;;
63536;SDS011;49686;51.880;5.632;2024-01-11T12:06:08;17.90;;;6.53;;
63536;SDS011;49686;51.880;5.632;2024-01-11T12:08:37;15.27;;;5.88;;
63536;SDS011;49686;51.880;5.632;2024-01-11T12:11:07;14.55;;;5.18;;
63536;SDS011;49686;51.880;5.632;2024-01-11T12:13:34;19.52;;;7.05;;
63536;SDS011;49686;51.880;5.632;2024-01-11T12:16:04;21.73;;;6.80;;
63536;SDS011;49686;51.880;5.632;2024-01-11T12:18:31;19.70;;;7.20;;
63536;SDS011;49686;51.880;5.632;2024-01-11T12:20:58;23.92;;;7.80;;
63536;SDS011;49686;51.880;5.632;2024-01-11T12:23:26;19.55;;;7.00;;
63536;SDS011;49686;51.880;5.632;2024-01-11T12:25:55;19.95;;;7.15;;
63536;SDS011;49686;51.880;5.632;2024-01-11T12:28:22;19.55;;;6.47;;
63536;SDS011;49686;51.880;5.632;2024-01-11T12:30:49;18.80;;;6.68;;
63536;SDS011;49686;51.880;5.632;2024-01-11T12:33:16;21.30;;;7.47;;
63536;SDS011;49686;51.880;5.632;2024-01-11T12:35:44;21.80;;;7.28;;
63536;SDS011;49686;51.880;5.632;2024-01-11T12:38:11;26.60;;;7.88;;
63536;SDS011;49686;51.880;5.632;2024-01-11T12:40:38;19.13;;;6.70;;
63536;SDS011;49686;51.880;5.632;2024-01-11T12:43:07;24.88;;;8.85;;
63536;SDS011;49686;51.880;5.632;2024-01-11T12:45:34;18.77;;;7.20;;
63536;SDS011;49686;51.880;5.632;2024-01-11T12:48:02;20.38;;;7.43;;
63536;SDS011;49686;51.880;5.632;2024-01-11T12:50:30;25.20;;;8.52;;
63536;SDS011;49686;51.880;5.632;2024-01-11T12:53:04;31.85;;;10.85;;
63536;SDS011;49686;51.880;5.632;2024-01-11T12:55:32;28.98;;;10.50;;
63536;SDS011;49686;51.880;5.632;2024-01-11T12:58:08;38.92;;;13.77;;
63536;SDS011;49686;51.880;5.632;2024-01-11T13:00:35;32.35;;;12.57;;
63536;SDS011;49686;51.880;5.632;2024-01-11T13:03:02;40.95;;;13.93;;
63536;SDS011;49686;51.880;5.632;2024-01-11T13:05:30;34.97;;;12.35;;
63536;SDS011;49686;51.880;5.632;2024-01-11T13:07:57;32.00;;;11.95;;
63536;SDS011;49686;51.880;5.632;2024-01-11T13:10:24;34.45;;;12.80;;
63536;SDS011;49686;51.880;5.632;2024-01-11T13:12:51;37.05;;;12.75;;
63536;SDS011;49686;51.880;5.632;2024-01-11T13:15:27;32.50;;;12.32;;
63536;SDS011;49686;51.880;5.632;2024-01-11T13:17:54;35.83;;;13.07;;
63536;SDS011;49686;51.880;5.632;2024-01-11T13:20:21;41.33;;;14.90;;
63536;SDS011;49686;51.880;5.632;2024-01-11T13:22:56;40.78;;;15.98;;
63536;SDS011;49686;51.880;5.632;2024-01-11T13:25:39;38.75;;;13.68;;
63536;SDS011;49686;51.880;5.632;2024-01-11T13:28:05;34.03;;;14.18;;
63536;SDS011;49686;51.880;5.632;2024-01-11T13:30:34;32.83;;;12.93;;
63536;SDS011;49686;51.880;5.632;2024-01-11T13:33:01;36.90;;;13.43;;
63536;SDS011;49686;51.880;5.632;2024-01-11T13:35:28;30.40;;;12.65;;
63536;SDS011;49686;51.880;5.632;2024-01-11T13:37:55;29.60;;;11.35;;
63536;SDS011;49686;51.880;5.632;2024-01-11T13:40:22;39.92;;;13.45;;
63536;SDS011;49686;51.880;5.632;2024-01-11T13:42:49;28.67;;;9.75;;
63536;SDS011;49686;51.880;5.632;2024-01-11T13:45:17;28.45;;;12.15;;
63536;SDS011;49686;51.880;5.632;2024-01-11T13:47:45;29.33;;;11.05;;
63536;SDS011;49686;51.880;5.632;2024-01-11T13:50:12;27.65;;;10.63;;
63536;SDS011;49686;51.880;5.632;2024-01-11T13:52:39;25.38;;;10.15;;
63536;SDS011;49686;51.880;5.632;2024-01-11T13:55:06;32.55;;;12.30;;
63536;SDS011;49686;51.880;5.632;2024-01-11T13:57:33;27.33;;;11.05;;
63536;SDS011;49686;51.880;5.632;2024-01-11T14:00:00;25.40;;;10.27;;
63536;SDS011;49686;51.880;5.632;2024-01-11T14:02:27;27.15;;;11.45;;
63536;SDS011;49686;51.880;5.632;2024-01-11T14:04:56;33.08;;;12.38;;
63536;SDS011;49686;51.880;5.632;2024-01-11T14:07:23;29.63;;;11.80;;
63536;SDS011;49686;51.880;5.632;2024-01-11T14:09:50;33.90;;;13.07;;
63536;SDS011;49686;51.880;5.632;2024-01-11T14:12:17;18.88;;;7.68;;
63536;SDS011;49686;51.880;5.632;2024-01-11T14:14:44;29.35;;;11.60;;
63536;SDS011;49686;51.880;5.632;2024-01-11T14:17:11;25.23;;;9.40;;
63536;SDS011;49686;51.880;5.632;2024-01-11T14:19:38;25.65;;;10.70;;
63536;SDS011;49686;51.880;5.632;2024-01-11T14:22:06;21.45;;;8.77;;
63536;SDS011;49686;51.880;5.632;2024-01-11T14:24:33;25.02;;;10.30;;
63536;SDS011;49686;51.880;5.632;2024-01-11T14:27:03;22.95;;;9.07;;
63536;SDS011;49686;51.880;5.632;2024-01-11T14:29:30;26.77;;;9.93;;
63536;SDS011;49686;51.880;5.632;2024-01-11T14:31:57;22.60;;;9.30;;
63536;SDS011;49686;51.880;5.632;2024-01-11T14:34:25;22.17;;;8.52;;
63536;SDS011;49686;51.880;5.632;2024-01-11T14:36:54;20.83;;;8.80;;
63536;SDS011;49686;51.880;5.632;2024-01-11T14:39:26;22.90;;;8.48;;
63536;SDS011;49686;51.880;5.632;2024-01-11T14:41:53;22.45;;;8.90;;
63536;SDS011;49686;51.880;5.632;2024-01-11T14:44:20;26.10;;;9.93;;